createdAt,value
2019-02-06T00:00:26.673Z,-1.38
2019-02-06T00:01:21.888Z,-1.41
2019-02-06T00:02:21.858Z,-1.20
2019-02-06T00:03:23.742Z,-1.39
2019-02-06T00:04:21.958Z,-1.23
2019-02-06T00:05:22.030Z,-1.27
2019-02-06T00:06:22.015Z,-1.27
2019-02-06T00:07:22.044Z,-1.28
2019-02-06T00:08:22.084Z,-1.27
2019-02-06T00:09:22.408Z,-1.24
2019-02-06T00:10:22.739Z,-1.30
2019-02-06T00:11:22.195Z,-1.21
2019-02-06T00:12:22.738Z,-1.23
2019-02-06T00:13:22.264Z,-1.31
2019-02-06T00:14:22.346Z,-1.33
2019-02-06T00:15:22.361Z,-1.38
2019-02-06T00:16:22.400Z,-1.51
2019-02-06T00:17:22.428Z,-1.51
2019-02-06T00:18:22.470Z,-1.49
2019-02-06T00:19:22.492Z,-1.53
2019-02-06T00:20:22.546Z,-1.60
2019-02-06T00:21:22.572Z,-1.54
2019-02-06T00:22:22.599Z,-1.57
2019-02-06T00:23:22.638Z,-1.59
2019-02-06T00:24:22.667Z,-1.59
2019-02-06T00:25:22.724Z,-1.54
2019-02-06T00:26:22.743Z,-1.69
2019-02-06T00:27:22.780Z,-1.66
2019-02-06T00:28:22.823Z,-1.62
2019-02-06T00:29:22.860Z,-1.63
2019-02-06T00:30:22.908Z,-1.60
2019-02-06T00:31:22.967Z,-1.69
2019-02-06T00:32:22.981Z,-1.59
2019-02-06T00:33:23.013Z,-1.69
2019-02-06T00:34:23.032Z,-1.63
2019-02-06T00:35:25.734Z,-1.67
2019-02-06T00:36:23.130Z,-1.60
2019-02-06T00:37:23.143Z,-1.60
2019-02-06T00:38:23.181Z,-1.54
2019-02-06T00:39:23.220Z,-1.56
2019-02-06T00:40:23.323Z,-1.54
2019-02-06T00:41:23.335Z,-1.60
2019-02-06T00:42:23.334Z,-1.67
2019-02-06T00:43:23.368Z,-1.59
2019-02-06T00:44:23.408Z,-1.60
2019-02-06T00:45:23.439Z,-1.63
2019-02-06T00:46:23.492Z,-1.48
2019-02-06T00:47:23.507Z,-1.59
2019-02-06T00:48:23.551Z,-1.57
2019-02-06T00:49:23.604Z,-1.60
2019-02-06T00:50:23.621Z,-1.56
2019-02-06T00:51:24.258Z,-1.45
2019-02-06T00:52:24.237Z,-1.49
2019-02-06T00:53:23.727Z,-1.53
2019-02-06T00:54:23.762Z,-1.45
2019-02-06T00:55:23.798Z,-1.46
2019-02-06T00:56:23.861Z,-1.54
2019-02-06T00:57:23.871Z,-1.48
2019-02-06T00:58:23.916Z,-1.51
2019-02-06T00:59:23.949Z,-1.36
2019-02-06T01:00:23.994Z,-1.49
2019-02-06T01:01:24.044Z,-1.53
2019-02-06T01:02:24.084Z,-1.56
2019-02-06T01:03:24.110Z,-1.56
2019-02-06T01:04:24.131Z,-1.57
2019-02-06T01:05:24.163Z,-1.51
2019-02-06T01:06:24.201Z,-1.36
2019-02-06T01:07:24.263Z,-1.56
2019-02-06T01:08:24.275Z,-1.51
2019-02-06T01:09:24.312Z,-1.53
2019-02-06T01:10:24.349Z,-1.54
2019-02-06T01:11:24.388Z,-1.56
2019-02-06T01:12:24.451Z,-1.56
2019-02-06T01:13:24.456Z,-1.59
2019-02-06T01:14:24.503Z,-1.57
2019-02-06T01:15:24.539Z,-1.57
2019-02-06T01:16:24.566Z,-1.45
2019-02-06T01:17:25.938Z,-1.51
2019-02-06T01:18:24.648Z,-1.48
2019-02-06T01:19:24.685Z,-1.42
2019-02-06T01:20:24.752Z,-1.35
2019-02-06T01:21:24.750Z,-1.42
2019-02-06T01:22:24.811Z,-1.46
2019-02-06T01:23:24.844Z,-1.45
2019-02-06T01:24:24.867Z,-1.38
2019-02-06T01:25:24.894Z,-1.53
2019-02-06T01:26:25.729Z,-1.43
2019-02-06T01:27:25.015Z,-1.64
2019-02-06T01:28:25.031Z,-1.57
2019-02-06T01:29:25.060Z,-1.51
2019-02-06T01:30:25.105Z,-1.45
2019-02-06T01:31:25.131Z,-1.45
2019-02-06T01:32:25.152Z,-1.42
2019-02-06T01:33:25.220Z,-1.36
2019-02-06T01:34:25.326Z,-1.36
2019-02-06T01:35:25.263Z,-1.36
2019-02-06T01:36:25.306Z,-1.39
2019-02-06T01:37:25.345Z,-1.49
2019-02-06T01:38:25.391Z,-1.38
2019-02-06T01:39:25.411Z,-1.54
2019-02-06T01:40:25.451Z,-1.51
2019-02-06T01:41:25.498Z,-1.56
2019-02-06T01:42:25.523Z,-1.54
2019-02-06T01:43:25.577Z,-1.67
2019-02-06T01:44:25.602Z,-1.57
2019-02-06T01:45:25.646Z,-1.59
2019-02-06T01:46:25.668Z,-1.64
2019-02-06T01:47:25.722Z,-1.49
2019-02-06T01:48:25.763Z,-1.54
2019-02-06T01:49:25.831Z,-1.48
2019-02-06T01:50:25.832Z,-1.57
2019-02-06T01:51:25.863Z,-1.51
2019-02-06T01:52:25.889Z,-1.53
2019-02-06T01:53:25.926Z,-1.39
2019-02-06T01:54:25.980Z,-1.36
2019-02-06T01:55:26.005Z,-1.56
2019-02-06T01:56:26.045Z,-1.57
2019-02-06T01:57:26.079Z,-1.56
2019-02-06T01:58:26.115Z,-1.66
2019-02-06T01:59:26.172Z,-1.66
2019-02-06T02:00:26.189Z,-1.63
2019-02-06T02:01:26.217Z,-1.63
2019-02-06T02:02:26.262Z,-1.69
2019-02-06T02:03:26.294Z,-1.74
2019-02-06T02:04:26.353Z,-1.69
2019-02-06T02:05:26.383Z,-1.74
2019-02-06T02:06:26.408Z,-1.81
2019-02-06T02:07:26.441Z,-1.75
2019-02-06T02:08:27.223Z,-1.72
2019-02-06T02:09:26.541Z,-1.74
2019-02-06T02:10:26.549Z,-1.75
2019-02-06T02:11:26.592Z,-1.78
2019-02-06T02:12:26.625Z,-1.72
2019-02-06T02:13:26.662Z,-1.72
2019-02-06T02:14:26.728Z,-1.74
2019-02-06T02:15:27.060Z,-1.77
2019-02-06T02:16:26.771Z,-1.69
2019-02-06T02:17:26.803Z,-1.63
2019-02-06T02:18:26.844Z,-1.60
2019-02-06T02:19:26.908Z,-1.66
2019-02-06T02:20:26.935Z,-1.80
2019-02-06T02:21:27.032Z,-1.81
2019-02-06T02:22:26.991Z,-1.82
2019-02-06T02:23:27.027Z,-1.78
2019-02-06T02:24:27.061Z,-1.77
2019-02-06T02:25:27.134Z,-1.81
2019-02-06T02:26:27.141Z,-1.84
2019-02-06T02:27:27.170Z,-1.87
2019-02-06T02:28:27.209Z,-1.90
2019-02-06T02:29:27.244Z,-1.80
2019-02-06T02:30:27.299Z,-1.87
2019-02-06T02:31:27.318Z,-1.84
2019-02-06T02:32:27.356Z,-1.96
2019-02-06T02:33:27.393Z,-1.92
2019-02-06T02:34:27.434Z,-1.95
2019-02-06T02:35:27.502Z,-1.93
2019-02-06T02:36:27.499Z,-2.02
2019-02-06T02:37:27.547Z,-1.99
2019-02-06T02:38:27.596Z,-1.96
2019-02-06T02:39:27.608Z,-2.00
2019-02-06T02:40:27.686Z,-1.98
2019-02-06T02:41:27.704Z,-1.96
2019-02-06T02:42:27.733Z,-1.99
2019-02-06T02:43:27.757Z,-1.95
2019-02-06T02:44:27.793Z,-1.99
2019-02-06T02:45:27.887Z,-1.96
2019-02-06T02:46:28.013Z,-1.95
2019-02-06T02:47:27.905Z,-1.98
2019-02-06T02:48:27.947Z,-1.96
2019-02-06T02:49:27.985Z,-1.95
2019-02-06T02:50:28.019Z,-1.96
2019-02-06T02:51:28.071Z,-2.08
2019-02-06T02:52:28.086Z,-2.13
2019-02-06T02:53:28.125Z,-2.18
2019-02-06T02:54:28.727Z,-2.06
2019-02-06T02:55:28.195Z,-1.98
2019-02-06T02:56:28.260Z,-1.96
2019-02-06T02:57:30.217Z,-2.00
2019-02-06T02:58:28.349Z,-1.99
2019-02-06T02:59:28.339Z,-1.96
2019-02-06T03:00:28.381Z,-1.93
2019-02-06T03:01:28.434Z,-1.93
2019-02-06T03:02:28.476Z,-2.00
2019-02-06T03:03:28.503Z,-1.99
2019-02-06T03:04:28.526Z,-1.98
2019-02-06T03:05:28.608Z,-1.95
2019-02-06T03:06:28.748Z,-1.95
2019-02-06T03:07:28.648Z,-1.99
2019-02-06T03:08:28.669Z,-1.88
2019-02-06T03:09:28.714Z,-1.92
2019-02-06T03:10:28.754Z,-1.96
2019-02-06T03:11:28.888Z,-1.99
2019-02-06T03:12:28.846Z,-1.92
2019-02-06T03:13:28.855Z,-1.96
2019-02-06T03:14:28.894Z,-1.99
2019-02-06T03:15:29.126Z,-1.96
2019-02-06T03:16:28.969Z,-1.99
2019-02-06T03:17:29.026Z,-1.96
2019-02-06T03:18:29.031Z,-1.98
2019-02-06T03:19:29.077Z,-1.95
2019-02-06T03:20:29.107Z,-2.02
2019-02-06T03:21:29.155Z,-1.96
2019-02-06T03:22:29.204Z,-1.95
2019-02-06T03:23:29.213Z,-1.92
2019-02-06T03:24:29.258Z,-2.00
2019-02-06T03:25:29.290Z,-1.92
2019-02-06T03:26:29.326Z,-1.98
2019-02-06T03:27:29.396Z,-1.90
2019-02-06T03:28:29.617Z,-1.96
2019-02-06T03:29:29.454Z,-1.96
2019-02-06T03:30:29.472Z,-2.11
2019-02-06T03:31:29.512Z,-2.08
2019-02-06T03:32:29.572Z,-1.99
2019-02-06T03:33:29.589Z,-2.11
2019-02-06T03:34:29.616Z,-1.99
2019-02-06T03:35:29.663Z,-1.98
2019-02-06T03:36:39.797Z,-1.93
2019-02-06T03:37:29.759Z,-1.98
2019-02-06T03:38:29.767Z,-1.96
2019-02-06T03:39:29.798Z,-2.08
2019-02-06T03:40:29.864Z,-2.02
2019-02-06T03:41:29.879Z,-1.93
2019-02-06T03:42:29.939Z,-1.98
2019-02-06T03:43:29.944Z,-1.96
2019-02-06T03:44:30.114Z,-1.96
2019-02-06T03:45:30.027Z,-1.96
2019-02-06T03:46:30.054Z,-1.98
2019-02-06T03:47:30.119Z,-1.95
2019-02-06T03:48:30.128Z,-1.92
2019-02-06T03:49:30.181Z,-2.00
2019-02-06T03:50:30.204Z,-1.92
2019-02-06T03:51:30.244Z,-1.95
2019-02-06T03:52:30.741Z,-1.96
2019-02-06T03:53:30.332Z,-1.93
2019-02-06T03:54:30.346Z,-1.95
2019-02-06T03:55:30.385Z,-1.98
2019-02-06T03:56:30.427Z,-1.99
2019-02-06T03:57:30.455Z,-1.95
2019-02-06T03:58:30.545Z,-1.99
2019-02-06T03:59:30.529Z,-1.92
2019-02-06T04:00:30.586Z,-1.87
2019-02-06T04:01:31.512Z,-1.81
2019-02-06T04:02:30.639Z,-1.87
2019-02-06T04:03:30.695Z,-1.90
2019-02-06T04:04:30.717Z,-1.95
2019-02-06T04:05:30.746Z,-1.90
2019-02-06T04:06:30.785Z,-1.81
2019-02-06T04:07:30.820Z,-1.70
2019-02-06T04:08:30.891Z,-1.81
2019-02-06T04:09:30.897Z,-1.82
2019-02-06T04:10:30.928Z,-1.92
2019-02-06T04:11:30.967Z,-1.85
2019-02-06T04:12:31.015Z,-1.85
2019-02-06T04:13:31.070Z,-1.81
2019-02-06T04:14:31.075Z,-1.85
2019-02-06T04:15:31.118Z,-1.87
2019-02-06T04:16:31.711Z,-1.88
2019-02-06T04:17:31.789Z,-1.98
2019-02-06T04:18:31.254Z,-1.95
2019-02-06T04:19:31.312Z,-1.96
2019-02-06T04:20:31.706Z,-1.96
2019-02-06T04:21:31.334Z,-1.98
2019-02-06T04:22:31.374Z,-2.00
2019-02-06T04:23:31.429Z,-1.95
2019-02-06T04:24:31.471Z,-2.06
2019-02-06T04:25:31.480Z,-2.00
2019-02-06T04:26:31.581Z,-2.10
2019-02-06T04:27:31.547Z,-2.13
2019-02-06T04:28:31.595Z,-2.10
2019-02-06T04:29:31.658Z,-2.05
2019-02-06T04:30:31.660Z,-2.08
2019-02-06T04:31:31.700Z,-2.05
2019-02-06T04:32:31.732Z,-2.05
2019-02-06T04:33:31.770Z,-2.11
2019-02-06T04:34:31.829Z,-2.06
2019-02-06T04:35:31.901Z,-2.05
2019-02-06T04:36:31.877Z,-2.08
2019-02-06T04:37:31.915Z,-2.11
2019-02-06T04:38:31.955Z,-1.98
2019-02-06T04:39:31.989Z,-1.96
2019-02-06T04:40:32.046Z,-1.93
2019-02-06T04:41:32.061Z,-1.93
2019-02-06T04:42:32.094Z,-2.02
2019-02-06T04:43:32.138Z,-2.03
2019-02-06T04:44:32.190Z,-2.10
2019-02-06T04:45:32.206Z,-2.11
2019-02-06T04:46:32.242Z,-2.08
2019-02-06T04:47:32.277Z,-1.96
2019-02-06T04:48:32.366Z,-1.93
2019-02-06T04:49:32.381Z,-1.98
2019-02-06T04:50:32.388Z,-1.99
2019-02-06T04:51:32.429Z,-2.00
2019-02-06T04:52:32.462Z,-2.02
2019-02-06T04:53:32.496Z,-1.96
2019-02-06T04:54:32.570Z,-1.95
2019-02-06T04:55:32.565Z,-2.02
2019-02-06T04:56:32.608Z,-2.00
2019-02-06T04:57:33.202Z,-1.93
2019-02-06T04:58:32.683Z,-2.02
2019-02-06T04:59:32.763Z,-1.96
2019-02-06T05:00:33.703Z,-1.95
2019-02-06T05:01:33.702Z,-1.92
2019-02-06T05:02:32.821Z,-1.82
2019-02-06T05:03:32.858Z,-1.88
2019-02-06T05:04:32.916Z,-1.80
2019-02-06T05:05:32.954Z,-1.80
2019-02-06T05:06:32.983Z,-1.70
2019-02-06T05:07:33.007Z,-1.82
2019-02-06T05:08:33.046Z,-1.66
2019-02-06T05:09:33.072Z,-1.69
2019-02-06T05:10:33.149Z,-1.66
2019-02-06T05:11:33.151Z,-1.70
2019-02-06T05:12:33.190Z,-1.75
2019-02-06T05:13:33.732Z,-1.74
2019-02-06T05:14:33.258Z,-1.74
2019-02-06T05:15:33.317Z,-1.88
2019-02-06T05:16:33.332Z,-1.84
2019-02-06T05:17:34.231Z,-1.88
2019-02-06T05:18:33.398Z,-1.78
2019-02-06T05:19:33.440Z,-1.93
2019-02-06T05:20:33.527Z,-1.93
2019-02-06T05:21:33.539Z,-1.81
2019-02-06T05:22:33.553Z,-1.82
2019-02-06T05:23:33.594Z,-1.81
2019-02-06T05:24:33.631Z,-1.87
2019-02-06T05:25:33.659Z,-1.90
2019-02-06T05:26:33.714Z,-1.90
2019-02-06T05:27:33.744Z,-1.80
2019-02-06T05:28:33.785Z,-1.98
2019-02-06T05:29:33.802Z,-1.87
2019-02-06T05:30:33.847Z,-1.93
2019-02-06T05:31:33.898Z,-1.84
2019-02-06T05:32:33.926Z,-1.84
2019-02-06T05:33:33.949Z,-1.87
2019-02-06T05:34:34.000Z,-1.95
2019-02-06T05:35:34.033Z,-1.93
2019-02-06T05:36:34.079Z,-1.82
2019-02-06T05:37:34.092Z,-1.78
2019-02-06T05:38:34.130Z,-1.77
2019-02-06T05:39:34.178Z,-1.85
2019-02-06T05:40:34.695Z,-1.81
2019-02-06T05:41:34.273Z,-1.77
2019-02-06T05:42:34.276Z,-1.84
2019-02-06T05:43:34.340Z,-1.85
2019-02-06T05:44:34.347Z,-1.77
2019-02-06T05:45:35.195Z,-1.82
2019-02-06T05:46:34.441Z,-1.85
2019-02-06T05:47:34.469Z,-1.75
2019-02-06T05:48:34.496Z,-1.84
2019-02-06T05:49:34.530Z,-1.81
2019-02-06T05:50:34.568Z,-1.92
2019-02-06T05:51:34.628Z,-1.88
2019-02-06T05:52:34.651Z,-1.93
2019-02-06T05:53:34.676Z,-1.84
2019-02-06T05:54:34.712Z,-1.95
2019-02-06T05:55:34.751Z,-1.95
2019-02-06T05:56:34.803Z,-2.00
2019-02-06T05:57:34.838Z,-2.06
2019-02-06T05:58:34.857Z,-2.05
2019-02-06T05:59:34.910Z,-2.11
2019-02-06T06:00:34.935Z,-2.03
2019-02-06T06:01:34.996Z,-2.02
2019-02-06T06:02:35.006Z,-2.08
2019-02-06T06:03:35.045Z,-2.08
2019-02-06T06:04:35.083Z,-2.17
2019-02-06T06:05:35.117Z,-2.17
2019-02-06T06:06:35.177Z,-2.28
2019-02-06T06:07:44.856Z,-2.17
2019-02-06T06:08:35.230Z,-2.20
2019-02-06T06:09:35.727Z,-2.17
2019-02-06T06:10:35.294Z,-2.23
2019-02-06T06:11:35.355Z,-2.26
2019-02-06T06:12:35.367Z,-2.21
2019-02-06T06:13:35.405Z,-2.23
2019-02-06T06:14:35.437Z,-2.16
2019-02-06T06:15:35.477Z,-2.20
2019-02-06T06:16:35.540Z,-2.13
2019-02-06T06:17:35.570Z,-2.14
2019-02-06T06:18:35.591Z,-2.21
2019-02-06T06:19:35.619Z,-2.28
2019-02-06T06:20:35.662Z,-2.13
2019-02-06T06:21:35.718Z,-2.16
2019-02-06T06:22:35.754Z,-2.14
2019-02-06T06:23:35.763Z,-2.14
2019-02-06T06:24:36.710Z,-2.14
2019-02-06T06:25:35.838Z,-2.21
2019-02-06T06:26:35.874Z,-2.21
2019-02-06T06:27:35.931Z,-2.21
2019-02-06T06:28:35.950Z,-2.35
2019-02-06T06:29:35.984Z,-2.36
2019-02-06T06:30:36.023Z,-2.36
2019-02-06T06:31:36.089Z,-2.36
2019-02-06T06:32:36.121Z,-2.36
2019-02-06T06:33:36.134Z,-2.35
2019-02-06T06:34:36.166Z,-2.33
2019-02-06T06:35:36.201Z,-2.32
2019-02-06T06:36:36.240Z,-2.36
2019-02-06T06:37:36.292Z,-2.32
2019-02-06T06:38:36.333Z,-2.39
2019-02-06T06:39:36.341Z,-2.33
2019-02-06T06:40:36.375Z,-2.32
2019-02-06T06:41:36.421Z,-2.33
2019-02-06T06:42:36.483Z,-2.32
2019-02-06T06:43:36.504Z,-2.29
2019-02-06T06:44:36.524Z,-2.26
2019-02-06T06:45:36.561Z,-2.26
2019-02-06T06:46:36.600Z,-2.18
2019-02-06T06:47:37.186Z,-2.17
2019-02-06T06:48:36.694Z,-2.18
2019-02-06T06:49:37.488Z,-2.13
2019-02-06T06:50:36.754Z,-2.11
2019-02-06T06:51:36.776Z,-2.10
2019-02-06T06:52:36.807Z,-2.13
2019-02-06T06:53:36.865Z,-2.06
2019-02-06T06:54:36.884Z,-2.17
2019-02-06T06:55:36.935Z,-2.16
2019-02-06T06:56:36.970Z,-2.16
2019-02-06T06:57:36.991Z,-2.06
2019-02-06T06:58:37.174Z,-2.00
2019-02-06T06:59:37.062Z,-2.05
2019-02-06T07:00:37.102Z,-1.99
2019-02-06T07:01:37.133Z,-1.95
2019-02-06T07:02:37.171Z,-1.96
2019-02-06T07:03:37.226Z,-1.93
2019-02-06T07:04:37.264Z,-1.95
2019-02-06T07:05:37.351Z,-1.95
2019-02-06T07:06:37.316Z,-2.00
2019-02-06T07:07:37.350Z,-2.00
2019-02-06T07:08:37.410Z,-2.10
2019-02-06T07:09:37.425Z,-2.10
2019-02-06T07:10:37.460Z,-2.10
2019-02-06T07:11:38.183Z,-2.05
2019-02-06T07:12:37.535Z,-2.11
2019-02-06T07:13:37.595Z,-2.00
2019-02-06T07:14:37.650Z,-1.98
2019-02-06T07:15:37.640Z,-2.03
2019-02-06T07:16:37.682Z,-1.93
2019-02-06T07:17:37.719Z,-1.92
2019-02-06T07:18:37.781Z,-1.96
2019-02-06T07:19:37.791Z,-1.96
2019-02-06T07:20:37.838Z,-1.87
2019-02-06T07:21:37.862Z,-1.85
2019-02-06T07:22:37.902Z,-1.96
2019-02-06T07:23:37.975Z,-2.02
2019-02-06T07:24:38.000Z,-1.95
2019-02-06T07:25:38.009Z,-1.99
2019-02-06T07:26:38.099Z,-1.96
2019-02-06T07:27:38.080Z,-1.99
2019-02-06T07:28:38.121Z,-1.92
2019-02-06T07:29:38.176Z,-1.95
2019-02-06T07:30:38.302Z,-1.96
2019-02-06T07:31:38.224Z,-1.95
2019-02-06T07:32:38.258Z,-1.96
2019-02-06T07:33:38.302Z,-1.95
2019-02-06T07:34:38.375Z,-1.93
2019-02-06T07:35:38.370Z,-1.93
2019-02-06T07:36:38.415Z,-1.80
2019-02-06T07:37:38.443Z,-1.77
2019-02-06T07:38:38.483Z,-1.84
2019-02-06T07:39:38.555Z,-1.87
2019-02-06T07:40:38.563Z,-1.87
2019-02-06T07:41:38.595Z,-1.78
2019-02-06T07:42:38.628Z,-1.67
2019-02-06T07:43:38.671Z,-1.78
2019-02-06T07:44:38.729Z,-1.78
2019-02-06T07:45:38.736Z,-1.64
2019-02-06T07:46:38.769Z,-1.75
2019-02-06T07:47:38.806Z,-1.75
2019-02-06T07:48:38.841Z,-1.78
2019-02-06T07:49:38.914Z,-1.80
2019-02-06T07:50:38.914Z,-1.81
2019-02-06T07:51:38.951Z,-1.82
2019-02-06T07:52:38.997Z,-1.96
2019-02-06T07:53:39.025Z,-1.85
2019-02-06T07:54:39.086Z,-1.98
2019-02-06T07:55:39.120Z,-1.95
2019-02-06T07:56:39.135Z,-2.08
2019-02-06T07:57:39.171Z,-2.08
2019-02-06T07:58:39.217Z,-1.99
2019-02-06T07:59:39.242Z,-1.98
2019-02-06T08:00:39.306Z,-1.99
2019-02-06T08:01:39.333Z,-1.98
2019-02-06T08:02:39.355Z,-1.95
2019-02-06T08:03:40.223Z,-1.93
2019-02-06T08:04:41.505Z,-1.95
2019-02-06T08:05:39.486Z,-2.14
2019-02-06T08:06:39.562Z,-2.06
2019-02-06T08:07:40.482Z,-2.10
2019-02-06T08:08:39.578Z,-2.23
2019-02-06T08:09:39.606Z,-2.16
2019-02-06T08:10:39.679Z,-2.16
2019-02-06T08:11:39.681Z,-2.06
2019-02-06T08:12:39.715Z,-2.10
2019-02-06T08:13:39.760Z,-2.11
2019-02-06T08:14:39.794Z,-2.13
2019-02-06T08:15:39.847Z,-2.18
2019-02-06T08:16:39.860Z,-2.11
2019-02-06T08:17:39.911Z,-2.00
2019-02-06T08:18:39.935Z,-2.10
2019-02-06T08:19:40.055Z,-2.05
2019-02-06T08:20:40.039Z,-2.20
2019-02-06T08:21:40.070Z,-2.14
2019-02-06T08:22:40.104Z,-2.10
2019-02-06T08:23:40.150Z,-2.10
2019-02-06T08:24:40.155Z,-2.10
2019-02-06T08:25:40.191Z,-1.99
2019-02-06T08:26:40.250Z,-1.96
2019-02-06T08:27:40.266Z,-1.95
2019-02-06T08:28:40.299Z,-1.99
2019-02-06T08:29:40.346Z,-2.00
2019-02-06T08:30:41.173Z,-2.00
2019-02-06T08:31:40.425Z,-2.02
2019-02-06T08:32:40.454Z,-1.95
2019-02-06T08:33:40.484Z,-1.88
2019-02-06T08:34:40.522Z,-1.96
2019-02-06T08:35:40.555Z,-1.98
2019-02-06T08:36:40.607Z,-1.93
2019-02-06T08:37:40.677Z,-2.00
2019-02-06T08:38:47.658Z,-1.98
2019-02-06T08:39:40.697Z,-1.90
2019-02-06T08:40:40.736Z,-1.92
2019-02-06T08:41:40.804Z,-1.84
2019-02-06T08:42:41.189Z,-1.95
2019-02-06T08:43:40.843Z,-1.98
2019-02-06T08:44:40.949Z,-1.96
2019-02-06T08:45:40.916Z,-1.98
2019-02-06T08:46:40.978Z,-1.84
2019-02-06T08:47:41.025Z,-1.87
2019-02-06T08:48:41.026Z,-1.78
2019-02-06T08:49:41.061Z,-1.78
2019-02-06T08:50:41.109Z,-1.84
2019-02-06T08:51:41.132Z,-1.81
2019-02-06T08:52:41.979Z,-1.80
2019-02-06T08:53:41.212Z,-1.84
2019-02-06T08:54:41.248Z,-1.84
2019-02-06T08:55:41.280Z,-1.80
2019-02-06T08:56:41.325Z,-1.75
2019-02-06T08:57:41.392Z,-1.69
2019-02-06T08:58:41.395Z,-1.62
2019-02-06T08:59:41.428Z,-1.57
2019-02-06T09:00:42.213Z,-1.69
2019-02-06T09:01:42.170Z,-1.54
2019-02-06T09:02:41.564Z,-1.69
2019-02-06T09:03:41.574Z,-1.57
2019-02-06T09:04:41.642Z,-1.62
2019-02-06T09:05:41.645Z,-1.57
2019-02-06T09:06:41.683Z,-1.53
2019-02-06T09:07:41.813Z,-1.48
2019-02-06T09:08:41.777Z,-1.51
2019-02-06T09:09:43.593Z,-1.56
2019-02-06T09:10:41.836Z,-1.53
2019-02-06T09:11:41.866Z,-1.57
2019-02-06T09:12:41.911Z,-1.49
2019-02-06T09:13:41.958Z,-1.42
2019-02-06T09:14:41.998Z,-1.39
2019-02-06T09:15:42.014Z,-1.43
2019-02-06T09:16:42.052Z,-1.33
2019-02-06T09:17:42.103Z,-1.48
2019-02-06T09:18:42.158Z,-1.30
2019-02-06T09:19:42.185Z,-1.24
2019-02-06T09:20:42.201Z,-1.25
2019-02-06T09:21:42.669Z,-1.18
2019-02-06T09:22:42.276Z,-1.13
2019-02-06T09:23:42.333Z,-1.15
2019-02-06T09:24:42.352Z,-1.20
2019-02-06T09:25:42.389Z,-1.21
2019-02-06T09:26:42.419Z,-1.18
2019-02-06T09:27:42.460Z,-1.28
2019-02-06T09:28:42.536Z,-1.36
2019-02-06T09:29:42.530Z,-1.23
2019-02-06T09:30:42.579Z,-1.33
2019-02-06T09:31:42.612Z,-1.39
2019-02-06T09:32:42.673Z,-1.23
2019-02-06T09:33:42.705Z,-1.23
2019-02-06T09:34:42.726Z,-1.25
2019-02-06T09:35:43.669Z,-1.18
2019-02-06T09:36:42.807Z,-1.31
2019-02-06T09:37:42.829Z,-1.36
2019-02-06T09:38:42.911Z,-1.17
2019-02-06T09:39:42.909Z,-1.20
2019-02-06T09:40:42.937Z,-1.15
2019-02-06T09:41:42.977Z,-1.24
2019-02-06T09:42:43.014Z,-1.10
2019-02-06T09:43:43.093Z,-1.03
2019-02-06T09:44:43.087Z,-0.89
2019-02-06T09:45:43.123Z,-0.78
2019-02-06T09:46:43.285Z,-0.77
2019-02-06T09:47:43.199Z,-0.70
2019-02-06T09:48:43.258Z,-0.81
2019-02-06T09:49:43.397Z,-0.80
2019-02-06T09:50:43.359Z,-0.83
2019-02-06T09:51:43.359Z,-0.72
2019-02-06T09:52:43.387Z,-0.70
2019-02-06T09:53:43.422Z,-0.78
2019-02-06T09:54:43.464Z,-0.65
2019-02-06T09:55:43.553Z,-0.69
2019-02-06T09:56:43.535Z,-0.57
2019-02-06T09:57:43.573Z,-0.60
2019-02-06T09:58:43.611Z,-0.54
2019-02-06T09:59:43.654Z,-0.55
2019-02-06T10:00:43.743Z,-0.54
2019-02-06T10:01:43.734Z,-0.55
2019-02-06T10:02:43.767Z,-0.47
2019-02-06T10:03:46.819Z,-0.54
2019-02-06T10:04:43.844Z,-0.54
2019-02-06T10:05:43.892Z,-0.39
2019-02-06T10:06:43.907Z,-0.47
2019-02-06T10:07:46.115Z,-0.41
2019-02-06T10:08:43.983Z,-0.54
2019-02-06T10:09:44.041Z,-0.41
2019-02-06T10:10:44.080Z,-0.52
2019-02-06T10:11:44.696Z,-0.55
2019-02-06T10:12:44.136Z,-0.50
2019-02-06T10:13:44.170Z,-0.48
2019-02-06T10:14:44.226Z,-0.69
2019-02-06T10:15:44.254Z,-0.62
2019-02-06T10:16:44.312Z,-0.69
2019-02-06T10:17:44.322Z,-0.66
2019-02-06T10:18:44.362Z,-0.62
2019-02-06T10:19:44.422Z,-0.59
2019-02-06T10:20:44.436Z,-0.68
2019-02-06T10:21:44.509Z,-0.72
2019-02-06T10:22:44.517Z,-0.68
2019-02-06T10:23:44.550Z,-0.65
2019-02-06T10:24:44.589Z,-0.68
2019-02-06T10:25:44.630Z,-0.50
2019-02-06T10:26:44.680Z,-0.44
2019-02-06T10:27:44.719Z,-0.44
2019-02-06T10:28:44.746Z,-0.47
2019-02-06T10:29:44.794Z,-0.34
2019-02-06T10:30:44.822Z,-0.31
2019-02-06T10:31:44.873Z,-0.26
2019-02-06T10:32:44.895Z,-0.24
2019-02-06T10:33:44.931Z,-0.29
2019-02-06T10:34:44.961Z,-0.30
2019-02-06T10:35:45.008Z,-0.30
2019-02-06T10:36:45.083Z,-0.33
2019-02-06T10:37:45.096Z,-0.30
2019-02-06T10:38:45.114Z,-0.18
2019-02-06T10:39:45.152Z,-0.19
2019-02-06T10:40:45.197Z,-0.19
2019-02-06T10:41:45.264Z,-0.13
2019-02-06T10:42:45.691Z,-0.09
2019-02-06T10:43:45.305Z,-0.06
2019-02-06T10:44:45.373Z,-0.04
2019-02-06T10:45:45.390Z,0.03
2019-02-06T10:46:45.427Z,-0.05
2019-02-06T10:47:45.493Z,-0.06
2019-02-06T10:48:46.190Z,0.00
2019-02-06T10:49:45.539Z,-0.05
2019-02-06T10:50:45.581Z,0.02
2019-02-06T10:51:45.648Z,-0.06
2019-02-06T10:52:48.215Z,-0.11
2019-02-06T10:53:45.715Z,-0.13
2019-02-06T10:54:45.741Z,-0.04
2019-02-06T10:55:45.784Z,-0.16
2019-02-06T10:56:45.806Z,-0.08
2019-02-06T10:57:45.860Z,-0.04
2019-02-06T10:58:46.658Z,-0.01
2019-02-06T10:59:45.936Z,0.00
2019-02-06T11:00:45.961Z,0.07
2019-02-06T11:01:45.996Z,0.09
2019-02-06T11:02:46.077Z,-0.01
2019-02-06T11:03:46.109Z,0.02
2019-02-06T11:04:46.112Z,0.09
2019-02-06T11:05:46.151Z,0.16
2019-02-06T11:06:46.198Z,0.24
2019-02-06T11:07:46.391Z,0.16
2019-02-06T11:08:46.317Z,0.28
2019-02-06T11:09:46.598Z,0.23
2019-02-06T11:10:47.194Z,0.36
2019-02-06T11:11:46.387Z,0.30
2019-02-06T11:12:46.421Z,0.20
2019-02-06T11:13:46.488Z,0.27
2019-02-06T11:14:46.512Z,0.18
2019-02-06T11:15:46.597Z,0.21
2019-02-06T11:16:46.575Z,0.24
2019-02-06T11:17:46.648Z,0.23
2019-02-06T11:18:46.678Z,0.20
2019-02-06T11:19:46.697Z,0.24
2019-02-06T11:20:46.729Z,0.20
2019-02-06T11:21:46.778Z,0.27
2019-02-06T11:22:46.807Z,0.28
2019-02-06T11:23:46.873Z,0.36
2019-02-06T11:24:46.897Z,0.36
2019-02-06T11:25:46.922Z,0.33
2019-02-06T11:26:46.962Z,0.34
2019-02-06T11:27:47.017Z,0.43
2019-02-06T11:28:47.070Z,0.25
2019-02-06T11:29:48.484Z,0.34
2019-02-06T11:30:47.124Z,0.33
2019-02-06T11:31:47.163Z,0.36
2019-02-06T11:32:47.201Z,0.28
2019-02-06T11:33:47.300Z,0.33
2019-02-06T11:34:47.281Z,0.28
2019-02-06T11:35:47.309Z,0.28
2019-02-06T11:36:47.357Z,0.24
2019-02-06T11:37:48.166Z,0.24
2019-02-06T11:38:47.447Z,0.25
2019-02-06T11:39:57.586Z,0.31
2019-02-06T11:40:47.550Z,0.24
2019-02-06T11:41:47.548Z,0.25
2019-02-06T11:42:47.580Z,0.24
2019-02-06T11:43:47.621Z,0.36
2019-02-06T11:44:47.688Z,0.16
2019-02-06T11:45:47.699Z,0.10
2019-02-06T11:46:47.734Z,0.07
2019-02-06T11:47:47.781Z,0.05
2019-02-06T11:48:47.814Z,0.00
2019-02-06T11:49:47.945Z,0.06
2019-02-06T11:50:47.899Z,0.10
2019-02-06T11:51:47.947Z,0.16
2019-02-06T11:52:47.970Z,0.23
2019-02-06T11:53:48.016Z,0.24
2019-02-06T11:54:48.075Z,0.36
2019-02-06T11:55:48.106Z,0.49
2019-02-06T11:56:48.123Z,0.51
2019-02-06T11:57:48.170Z,0.64
2019-02-06T11:58:48.204Z,0.57
2019-02-06T11:59:48.244Z,0.67
2019-02-06T12:00:48.766Z,0.53
2019-02-06T12:01:48.327Z,0.60
2019-02-06T12:02:48.354Z,0.57
2019-02-06T12:03:48.400Z,0.62
2019-02-06T12:04:48.444Z,0.60
2019-02-06T12:05:48.491Z,0.57
2019-02-06T12:06:48.511Z,0.45
2019-02-06T12:07:48.651Z,0.42
2019-02-06T12:08:48.649Z,0.34
2019-02-06T12:09:48.628Z,0.36
2019-02-06T12:10:48.687Z,0.46
2019-02-06T12:11:48.745Z,0.57
2019-02-06T12:12:48.744Z,0.57
2019-02-06T12:13:48.784Z,0.61
2019-02-06T12:14:48.895Z,0.43
2019-02-06T12:15:48.882Z,0.51
2019-02-06T12:16:48.902Z,0.42
2019-02-06T12:17:48.944Z,0.38
2019-02-06T12:18:48.980Z,0.25
2019-02-06T12:19:49.019Z,0.24
2019-02-06T12:20:49.079Z,0.34
2019-02-06T12:21:49.117Z,0.42
2019-02-06T12:22:49.715Z,0.45
2019-02-06T12:23:49.182Z,0.48
2019-02-06T12:24:49.221Z,0.45
2019-02-06T12:25:49.278Z,0.57
2019-02-06T12:26:49.309Z,0.45
2019-02-06T12:27:49.337Z,0.45
2019-02-06T12:28:49.377Z,0.46
2019-02-06T12:29:49.408Z,0.51
2019-02-06T12:30:49.470Z,0.46
2019-02-06T12:31:50.158Z,0.48
2019-02-06T12:32:52.346Z,0.48
2019-02-06T12:33:49.565Z,0.48
2019-02-06T12:34:49.604Z,0.57
2019-02-06T12:35:49.750Z,0.51
2019-02-06T12:36:49.707Z,0.48
2019-02-06T12:37:49.741Z,0.49
2019-02-06T12:38:53.499Z,0.65
2019-02-06T12:39:49.801Z,0.53
2019-02-06T12:40:49.835Z,0.46
2019-02-06T12:41:50.456Z,0.51
2019-02-06T12:42:49.953Z,0.52
2019-02-06T12:43:49.948Z,0.52
2019-02-06T12:44:49.993Z,0.49
2019-02-06T12:45:50.028Z,0.41
2019-02-06T12:46:50.092Z,0.45
2019-02-06T12:47:50.110Z,0.41
2019-02-06T12:48:50.651Z,0.38
2019-02-06T12:49:50.193Z,0.42
2019-02-06T12:50:50.221Z,0.45
2019-02-06T12:51:52.257Z,0.48
2019-02-06T12:52:50.335Z,0.51
2019-02-06T12:53:50.343Z,0.60
2019-02-06T12:54:50.384Z,0.61
2019-02-06T12:55:50.420Z,0.46
2019-02-06T12:56:50.473Z,0.42